Minnekata, South Dakota
Current Conditions -  °F | °C
As of 1:53 AM on Monday 20 Oct 2014 (Local Time) from KCUT Reporting Station
Clear Clear  
Wind Chill: 32°   Ceiling: Unl
Heat Index: 37°   Visibility: 10mi
Dew Point: 33°   Wind: 6mph
Humidity: 86%   Direction: 330°NNW
Pressure: 30.16"   Gusts: NA
Location:  43.346°N, 103.483°W
Report Text: KCUT 200753Z AUTO 33005KT 10SM CLR 03/01 A3016 RMK AO2 SLP177 T00280006
Loading
Personal Weather Stations






























Interactive Weather Map
Tropical Storm Tracking
New forecast layout! Learn more

10-Day Weather Forecast

Advertisements
Track Severe Weather on mobile